Terminal Aerodrome Forecast
Issued by NWS Upton, NY

Home | Current Version | Previous Version | Text Only | Print | Product List | Glossary On
Versions: 1 2 3 4 5 6 7 8 9 10 11 12 13 14 15 16 17 18 19 20 21 22 23 24 25 26 27
000
FTUS41 KOKX 181430 AAA
TAFJFK
TAF AMD
KJFK 181430Z 1815/1918 22010KT P6SM SKC
     FM181800 21015KT P6SM FEW080
     FM182100 19018G24KT P6SM SCT080
     FM182300 27014G22KT P6SM SCT080
     FM190100 35013G21KT P6SM SKC
     FM190600 02009KT P6SM FEW250=

USA.gov is the U.S. government's official web portal to all federal, state and local government web resources and services.